createdAt,value
2018-02-02T00:00:48.108Z,99305.39
2018-02-02T00:03:15.372Z,99298.70
2018-02-02T00:05:43.350Z,99295.02
2018-02-02T00:08:11.858Z,99293.28
2018-02-02T00:10:39.259Z,99291.80
2018-02-02T00:13:06.547Z,99282.94
2018-02-02T00:15:33.925Z,99270.89
2018-02-02T00:18:01.164Z,99271.55
2018-02-02T00:20:29.969Z,99268.48
2018-02-02T00:22:58.094Z,99271.18
2018-02-02T00:25:25.176Z,99268.30
2018-02-02T00:27:53.024Z,99274.91
2018-02-02T00:30:20.046Z,99273.02
2018-02-02T00:32:47.362Z,99273.56
2018-02-02T00:35:14.619Z,99267.52
2018-02-02T00:37:41.698Z,99271.88
2018-02-02T00:40:09.184Z,99268.39
2018-02-02T00:42:36.892Z,99272.22
2018-02-02T00:45:04.167Z,99270.66
2018-02-02T00:47:32.123Z,99261.20
2018-02-02T00:49:59.079Z,99268.05
2018-02-02T00:52:26.043Z,99259.69
2018-02-02T00:54:53.149Z,99265.26
2018-02-02T00:57:20.824Z,99256.06
2018-02-02T00:59:47.876Z,99262.20
2018-02-02T01:02:14.988Z,99256.20
2018-02-02T01:04:41.989Z,99256.36
2018-02-02T01:07:09.007Z,99258.89
2018-02-02T01:09:36.013Z,99252.97
2018-02-02T01:12:03.261Z,99254.89
2018-02-02T01:14:30.369Z,99256.46
2018-02-02T01:16:57.386Z,99256.70
2018-02-02T01:19:24.444Z,99260.38
2018-02-02T01:21:54.089Z,99249.50
2018-02-02T01:24:22.862Z,99247.22
2018-02-02T01:26:52.641Z,99247.00
2018-02-02T01:29:21.517Z,99241.50
2018-02-02T01:31:50.100Z,99246.50
2018-02-02T01:34:17.219Z,99248.17
2018-02-02T01:36:44.423Z,99245.94
2018-02-02T01:39:12.430Z,99250.17
2018-02-02T01:41:39.456Z,99251.14
2018-02-02T01:44:06.480Z,99247.41
2018-02-02T01:46:37.913Z,99252.38
2018-02-02T01:49:14.319Z,99256.89
2018-02-02T01:51:43.114Z,99251.38
2018-02-02T01:54:13.731Z,99245.48
2018-02-02T01:56:44.001Z,99248.63
2018-02-02T01:59:13.407Z,99245.97
2018-02-02T02:01:40.864Z,99244.50
2018-02-02T02:04:08.550Z,99233.03
2018-02-02T02:06:35.788Z,99241.05
2018-02-02T02:09:03.597Z,99227.97
2018-02-02T02:11:30.542Z,99237.56
2018-02-02T02:13:57.469Z,99233.48
2018-02-02T02:16:24.344Z,99229.16
2018-02-02T02:18:59.004Z,99223.67
2018-02-02T02:21:26.705Z,99226.82
2018-02-02T02:23:53.619Z,99221.33
2018-02-02T02:26:20.528Z,99219.84
2018-02-02T02:28:47.423Z,99208.71
2018-02-02T02:31:15.064Z,99213.44
2018-02-02T02:33:41.957Z,99204.30
2018-02-02T02:36:10.008Z,99196.50
2018-02-02T02:38:36.914Z,99193.91
2018-02-02T02:41:04.541Z,99193.52
2018-02-02T02:43:31.461Z,99190.83
2018-02-02T02:45:59.029Z,99194.42
2018-02-02T02:48:26.668Z,99197.59
2018-02-02T02:50:53.552Z,99199.20
2018-02-02T02:53:20.753Z,99191.38
2018-02-02T02:55:49.888Z,99184.95
2018-02-02T02:58:22.308Z,99189.20
2018-02-02T03:00:53.695Z,99190.00
2018-02-02T03:06:02.080Z,99186.22
2018-02-02T03:36:21.032Z,99185.32
2018-02-02T03:38:57.513Z,99185.52
2018-02-02T03:41:44.514Z,99184.89
2018-02-02T03:44:25.260Z,99183.03
2018-02-02T03:46:56.411Z,99193.74
2018-02-02T03:49:26.742Z,99182.07
2018-02-02T03:51:55.538Z,99185.62
2018-02-02T03:54:22.742Z,99191.53
2018-02-02T03:56:49.922Z,99183.67
2018-02-02T03:59:17.196Z,99180.95
2018-02-02T04:01:44.752Z,99184.55
2018-02-02T04:04:12.940Z,99181.97
2018-02-02T04:06:40.736Z,99183.48
2018-02-02T04:09:13.367Z,99179.41
2018-02-02T04:11:45.348Z,99176.61
2018-02-02T04:14:18.079Z,99175.38
2018-02-02T04:17:08.468Z,99176.81
2018-02-02T04:19:35.830Z,99194.44
2018-02-02T04:22:03.871Z,99189.07
2018-02-02T04:24:31.769Z,99187.18
2018-02-02T04:26:58.871Z,99184.95
2018-02-02T04:29:26.084Z,99187.69
2018-02-02T04:31:53.121Z,99185.94
2018-02-02T04:34:20.036Z,99186.81
2018-02-02T04:36:50.610Z,99187.66
2018-02-02T04:39:17.765Z,99194.20
2018-02-02T04:41:44.905Z,99190.06
2018-02-02T04:44:13.000Z,99189.31
2018-02-02T04:46:40.178Z,99193.39
2018-02-02T04:49:07.160Z,99191.97
2018-02-02T04:51:34.828Z,99193.23
2018-02-02T04:54:02.031Z,99197.27
2018-02-02T04:56:29.040Z,99192.91
2018-02-02T04:58:56.701Z,99187.23
2018-02-02T05:01:23.744Z,99187.66
2018-02-02T05:03:50.799Z,99187.50
2018-02-02T05:06:17.863Z,99189.30
2018-02-02T05:08:45.008Z,99183.67
2018-02-02T05:11:12.028Z,99182.12
2018-02-02T05:13:40.348Z,99179.99
2018-02-02T05:16:09.313Z,99182.79
2018-02-02T05:18:37.651Z,99180.77
2018-02-02T05:21:05.647Z,99175.43
2018-02-02T05:23:33.849Z,99178.77
2018-02-02T05:26:00.956Z,99171.36
2018-02-02T05:28:28.132Z,99179.19
2018-02-02T05:30:55.142Z,99167.38
2018-02-02T05:33:22.229Z,99171.27
2018-02-02T05:35:49.492Z,99173.42
2018-02-02T05:38:16.488Z,99168.72
2018-02-02T05:40:43.577Z,99177.00
2018-02-02T05:43:15.777Z,99169.14
2018-02-02T05:45:43.689Z,99168.00
2018-02-02T05:48:10.718Z,99176.20
2018-02-02T05:50:37.713Z,99165.55
2018-02-02T05:53:04.731Z,99164.16
2018-02-02T05:55:31.775Z,99168.00
2018-02-02T05:57:59.489Z,99165.45
2018-02-02T06:00:28.095Z,99159.46
2018-02-02T06:02:55.325Z,99170.58
2018-02-02T06:05:22.404Z,99167.91
2018-02-02T06:07:49.749Z,99161.14
2018-02-02T06:10:16.905Z,99163.88
2018-02-02T06:12:44.068Z,99165.16
2018-02-02T06:15:11.162Z,99160.65
2018-02-02T06:17:38.374Z,99164.22
2018-02-02T06:20:05.855Z,99164.97
2018-02-02T06:22:34.984Z,99162.37
2018-02-02T06:25:03.217Z,99158.06
2018-02-02T06:27:30.854Z,99165.34
2018-02-02T06:29:59.512Z,99161.79
2018-02-02T06:32:26.713Z,99169.04
2018-02-02T06:34:54.751Z,99164.19
2018-02-02T06:37:22.995Z,99165.30
2018-02-02T06:39:50.958Z,99172.55
2018-02-02T06:42:19.262Z,99166.96
2018-02-02T06:44:46.315Z,99174.20
2018-02-02T06:47:13.707Z,99174.78
2018-02-02T06:49:40.895Z,99177.99
2018-02-02T06:52:08.279Z,99175.30
2018-02-02T06:54:35.745Z,99176.20
2018-02-02T06:57:03.205Z,99176.28
2018-02-02T06:59:30.451Z,99176.95
2018-02-02T07:01:58.612Z,99178.53
2018-02-02T07:04:25.850Z,99180.67
2018-02-02T07:06:53.090Z,99181.75
2018-02-02T07:09:20.920Z,99177.98
2018-02-02T07:11:48.015Z,99184.31
2018-02-02T07:14:15.109Z,99180.84
2018-02-02T07:16:42.310Z,99190.30
2018-02-02T07:19:10.272Z,99182.34
2018-02-02T07:21:37.598Z,99193.48
2018-02-02T07:24:04.782Z,99187.48
2018-02-02T07:26:33.047Z,99188.32
2018-02-02T07:28:59.973Z,99189.86
2018-02-02T07:31:26.889Z,99183.97
2018-02-02T07:33:53.768Z,99189.20
2018-02-02T07:36:21.364Z,99183.50
2018-02-02T07:38:48.247Z,99187.78
2018-02-02T07:41:15.110Z,99190.00
2018-02-02T07:43:42.734Z,99194.17
2018-02-02T07:46:09.600Z,99190.91
2018-02-02T07:48:37.233Z,99195.56
2018-02-02T07:51:04.943Z,99196.67
2018-02-02T07:53:31.896Z,99197.42
2018-02-02T07:55:58.783Z,99198.33
2018-02-02T07:58:25.612Z,99201.37
2018-02-02T08:32:17.425Z,99217.70
2018-02-02T08:34:44.334Z,99215.14
2018-02-02T08:37:11.258Z,99224.29
2018-02-02T08:39:38.170Z,99225.63
2018-02-02T08:42:05.071Z,99225.06
2018-02-02T08:44:32.698Z,99232.93
2018-02-02T08:47:02.334Z,99232.03
2018-02-02T09:32:01.404Z,99245.06
2018-02-02T09:34:31.610Z,99245.41
2018-02-02T09:40:16.533Z,99253.55
2018-02-02T09:42:43.623Z,99252.80
2018-02-02T09:45:10.866Z,99255.97
2018-02-02T09:47:38.450Z,99259.31
2018-02-02T09:50:05.419Z,99257.77
2018-02-02T09:52:32.679Z,99258.54
2018-02-02T09:55:00.105Z,99269.87
2018-02-02T09:57:28.525Z,99262.66
2018-02-02T09:59:55.710Z,99263.08
2018-02-02T10:02:23.080Z,99263.62
2018-02-02T10:04:53.536Z,99267.16
2018-02-02T10:07:22.878Z,99260.92
2018-02-02T10:09:50.872Z,99257.95
2018-02-02T10:12:18.978Z,99263.17
2018-02-02T10:14:49.296Z,99270.22
2018-02-02T10:17:22.898Z,99271.19
2018-02-02T10:19:52.039Z,99275.45
2018-02-02T10:22:20.841Z,99282.22
2018-02-02T10:24:48.904Z,99282.44
2018-02-02T10:27:16.985Z,99287.22
2018-02-02T10:29:44.517Z,99285.11
2018-02-02T10:32:17.212Z,99287.03
2018-02-02T10:34:44.553Z,99289.75
2018-02-02T10:37:12.231Z,99290.02
2018-02-02T10:39:39.099Z,99295.19
2018-02-02T10:42:05.978Z,99298.00
2018-02-02T10:44:32.835Z,99292.49
2018-02-02T10:46:59.828Z,99293.40
2018-02-02T10:49:26.643Z,99294.23
2018-02-02T10:51:53.614Z,99294.66
2018-02-02T10:54:20.522Z,99289.45
2018-02-02T10:56:47.477Z,99296.51
2018-02-02T10:59:14.464Z,99298.78
2018-02-02T11:01:41.425Z,99303.47
2018-02-02T11:04:09.356Z,99297.42
2018-02-02T11:06:36.220Z,99303.88
2018-02-02T11:09:04.015Z,99303.91
2018-02-02T11:11:30.904Z,99308.79
2018-02-02T11:13:57.745Z,99300.33
2018-02-02T11:16:25.381Z,99303.17
2018-02-02T11:18:52.308Z,99306.22
2018-02-02T11:21:19.188Z,99305.98
2018-02-02T11:23:46.038Z,99304.54
2018-02-02T11:26:12.888Z,99306.91
2018-02-02T11:28:39.710Z,99310.38
2018-02-02T11:31:06.564Z,99307.33
2018-02-02T11:33:33.437Z,99307.50
2018-02-02T11:36:00.347Z,99309.86
2018-02-02T11:38:27.211Z,99310.83
2018-02-02T11:40:54.056Z,99311.25
2018-02-02T11:43:20.943Z,99315.17
2018-02-02T11:45:47.789Z,99318.56
2018-02-02T11:48:14.622Z,99315.09
2018-02-02T11:50:42.204Z,99317.49
2018-02-02T11:53:09.063Z,99320.19
2018-02-02T11:55:36.759Z,99318.74
2018-02-02T11:58:03.642Z,99323.70
2018-02-02T12:00:30.557Z,99329.89
2018-02-02T12:18:57.668Z,99324.76
2018-02-02T12:36:03.545Z,99332.62
2018-02-02T12:38:40.917Z,99327.64
2018-02-02T12:41:48.112Z,99338.45
2018-02-02T12:53:52.884Z,99344.71
2018-02-02T12:56:20.415Z,99342.38
2018-02-02T13:02:09.043Z,99346.39
2018-02-02T13:07:50.497Z,99353.42
2018-02-02T13:10:44.390Z,99361.73
2018-02-02T13:13:43.503Z,99365.89
2018-02-02T13:37:54.463Z,99381.77
2018-02-02T13:47:52.018Z,99387.47
2018-02-02T13:59:47.834Z,99397.31
2018-02-02T14:14:53.106Z,99420.20
2018-02-02T15:12:00.990Z,99483.81
2018-02-02T15:21:09.289Z,99493.08
2018-02-02T15:39:35.306Z,99503.98
2018-02-02T15:42:20.047Z,99507.85
2018-02-02T15:44:53.862Z,99507.55
2018-02-02T15:47:22.285Z,99514.58
2018-02-02T17:25:56.543Z,99638.59
2018-02-02T17:28:29.750Z,99642.63
2018-02-02T17:31:08.014Z,99641.75
2018-02-02T17:36:26.040Z,99645.06
2018-02-02T17:39:00.581Z,99658.48
2018-02-02T17:41:30.484Z,99656.25
2018-02-02T17:43:58.321Z,99652.22
2018-02-02T17:46:26.212Z,99657.47
2018-02-02T17:49:17.038Z,99659.62
2018-02-02T17:51:54.062Z,99655.95
2018-02-02T17:54:25.321Z,99662.96
2018-02-02T17:57:01.495Z,99661.28
2018-02-02T18:07:21.042Z,99673.66
2018-02-02T18:13:15.433Z,99674.97
2018-02-02T18:15:52.901Z,99672.82
2018-02-02T18:18:26.654Z,99684.25
2018-02-02T18:21:07.885Z,99688.48
2018-02-02T18:26:28.206Z,99694.00
2018-02-02T19:32:02.080Z,99748.30
2018-02-02T19:34:31.215Z,99748.05
2018-02-02T19:37:00.125Z,99750.06
2018-02-02T19:39:29.188Z,99748.38
2018-02-02T19:41:59.050Z,99754.06
2018-02-02T19:44:27.961Z,99748.52
2018-02-02T19:46:56.914Z,99764.34
2018-02-02T19:49:26.257Z,99763.83
2018-02-02T19:51:55.197Z,99772.37
2018-02-02T19:54:24.115Z,99776.58
2018-02-02T19:56:53.147Z,99775.06
2018-02-02T19:59:22.069Z,99774.71
2018-02-02T20:01:50.969Z,99776.53
2018-02-02T20:04:19.886Z,99776.66
2018-02-02T20:06:48.904Z,99777.25
2018-02-02T20:09:17.907Z,99779.02
2018-02-02T20:11:46.941Z,99775.80
2018-02-02T20:14:17.553Z,99778.06
2018-02-02T20:16:46.459Z,99784.61
2018-02-02T20:19:15.314Z,99779.09
2018-02-02T20:21:44.940Z,99786.55
2018-02-02T20:24:14.041Z,99783.70
2018-02-02T20:26:42.837Z,99787.08
2018-02-02T20:29:11.833Z,99795.57
2018-02-02T20:31:40.692Z,99796.54
2018-02-02T20:34:10.268Z,99800.82
2018-02-02T20:36:39.069Z,99801.25
2018-02-02T20:39:08.906Z,99800.39
2018-02-02T20:41:37.677Z,99807.30
2018-02-02T20:44:07.336Z,99807.98
2018-02-02T20:46:35.997Z,99811.03
2018-02-02T20:49:04.655Z,99806.95
2018-02-02T20:51:33.024Z,99806.44
2018-02-02T20:54:01.928Z,99805.02
2018-02-02T20:56:30.813Z,99803.44
2018-02-02T20:59:00.120Z,99805.58
2018-02-02T21:01:29.341Z,99804.59
2018-02-02T21:03:57.142Z,99802.22
2018-02-02T21:06:27.119Z,99799.89
2018-02-02T21:08:56.655Z,99806.21
2018-02-02T21:11:25.437Z,99806.30
2018-02-02T21:13:54.420Z,99814.28
2018-02-02T21:16:23.374Z,99812.92
2018-02-02T21:18:51.438Z,99813.13
2018-02-02T21:21:19.904Z,99808.75
2018-02-02T21:23:47.099Z,99816.25
2018-02-02T21:26:15.884Z,99815.47
2018-02-02T21:28:44.463Z,99820.74
2018-02-02T21:31:14.359Z,99819.20
2018-02-02T21:34:04.815Z,99820.87
2018-02-02T21:36:33.546Z,99823.08
2018-02-02T21:39:01.581Z,99828.59
2018-02-02T21:41:28.919Z,99831.79
2018-02-02T21:43:57.157Z,99837.53
2018-02-02T21:46:25.377Z,99840.62
2018-02-02T21:48:53.131Z,99836.31
2018-02-02T21:51:21.509Z,99831.00
2018-02-02T21:53:49.422Z,99839.83
2018-02-02T21:56:17.968Z,99840.67
2018-02-02T21:58:45.628Z,99835.55
2018-02-02T22:01:14.052Z,99842.17
2018-02-02T22:03:41.901Z,99847.97
2018-02-02T22:06:09.747Z,99849.64
2018-02-02T22:08:36.648Z,99851.11
2018-02-02T22:11:03.842Z,99844.78
2018-02-02T22:13:32.249Z,99848.37
2018-02-02T22:15:59.918Z,99852.69
2018-02-02T22:18:27.478Z,99851.73
2018-02-02T22:20:55.626Z,99853.25
2018-02-02T22:23:22.941Z,99865.30
2018-02-02T22:25:49.983Z,99858.18
2018-02-02T22:28:16.856Z,99857.70
2018-02-02T22:30:43.779Z,99858.09
2018-02-02T22:33:10.799Z,99858.48
2018-02-02T22:35:38.755Z,99857.25
2018-02-02T22:38:07.731Z,99862.55
2018-02-02T22:40:34.804Z,99861.31
2018-02-02T22:43:01.926Z,99863.33
2018-02-02T22:45:29.673Z,99867.58
2018-02-02T22:47:57.314Z,99863.38
2018-02-02T22:50:25.104Z,99864.27
2018-02-02T22:52:53.003Z,99869.89
2018-02-02T22:55:20.851Z,99863.20
2018-02-02T22:57:48.712Z,99862.00
2018-02-02T23:00:16.829Z,99859.64
2018-02-02T23:02:44.696Z,99867.90
2018-02-02T23:05:13.187Z,99871.63
2018-02-02T23:07:42.793Z,99875.98
2018-02-02T23:10:10.727Z,99873.43
2018-02-02T23:12:39.351Z,99874.87
2018-02-02T23:15:07.118Z,99875.55
2018-02-02T23:17:35.025Z,99875.91
